Time;durP1;ratioP1;P1;durP2;ratioP2;P2;SDS_P1;SDS_P2;PMS_P1;PMS_P2;Temp;Humidity;BMP_temperature;BMP_pressure;BME280_temperature;BME280_humidity;BME280_pressure;Samples;Min_cycle;Max_cycle;Signal;HPM_P1;HPM_P2
2021/12/17 00:04:37;;;;;;;662.97;258.10;;;3.70;99.90;;;;;;5004707;28;20077;-80
2021/12/17 00:07:21;;;;;;;445.90;155.35;;;3.60;99.90;;;;;;4987340;28;20037;-80
2021/12/17 00:09:48;;;;;;;566.88;202.65;;;3.60;99.90;;;;;;5003581;28;20311;-80
2021/12/17 00:12:18;;;;;;;767.05;301.65;;;3.60;99.90;;;;;;5003342;28;20034;-79
2021/12/17 00:14:49;;;;;;;808.67;317.23;;;3.60;99.90;;;;;;4988052;28;20022;-80
2021/12/17 00:17:22;;;;;;;647.70;248.35;;;3.60;99.90;;;;;;5036056;28;20040;-80
2021/12/17 00:20:31;;;;;;;344.65;122.38;;;3.70;99.90;;;;;;5048527;28;20060;-79
2021/12/17 00:49:50;;;;;;;93.60;43.30;;;3.60;99.90;;;;;;5049275;28;20021;-80
2021/12/17 00:52:16;;;;;;;82.60;41.35;;;3.70;99.90;;;;;;5046340;28;20479;-79
2021/12/17 00:54:45;;;;;;;81.20;40.60;;;3.70;99.90;;;;;;5045795;28;20091;-80
2021/12/17 00:57:18;;;;;;;87.32;40.67;;;3.70;99.90;;;;;;5043557;28;20021;-80
2021/12/17 00:59:47;;;;;;;85.72;42.38;;;3.70;99.90;;;;;;5043715;28;20017;-80
2021/12/17 01:02:26;;;;;;;86.20;42.42;;;3.70;99.90;;;;;;5042665;28;20740;-79
2021/12/17 01:04:57;;;;;;;87.13;41.58;;;3.70;99.90;;;;;;5043177;28;20325;-81
2021/12/17 01:07:27;;;;;;;100.82;45.75;;;3.70;99.90;;;;;;5042723;28;20033;-80
2021/12/17 01:09:53;;;;;;;100.50;47.30;;;3.70;99.90;;;;;;5040537;28;20013;-79
2021/12/17 01:12:21;;;;;;;94.70;45.30;;;3.70;99.90;;;;;;5041298;28;20033;-79
2021/12/17 01:14:47;;;;;;;88.28;43.17;;;3.80;99.90;;;;;;5041646;28;20056;-79
2021/12/17 01:17:16;;;;;;;87.85;41.97;;;3.70;99.90;;;;;;5040612;28;20716;-79
2021/12/17 01:25:34;;;;;;;115.97;51.42;;;3.80;99.90;;;;;;4979102;28;20031;-79
2021/12/17 01:36:14;;;;;;;116.35;52.58;;;3.80;99.90;;;;;;4979512;28;20546;-80
2021/12/17 01:43:46;;;;;;;182.77;79.18;;;3.80;99.90;;;;;;4981344;28;20087;-80
2021/12/17 01:46:22;;;;;;;150.02;66.32;;;3.80;99.90;;;;;;4981227;28;20038;-79
2021/12/17 01:49:03;;;;;;;89.88;44.28;;;3.80;99.90;;;;;;4981577;28;20077;-80
2021/12/17 01:59:52;;;;;;;96.15;45.83;;;3.80;99.90;;;;;;4981614;28;20254;-79
2021/12/17 02:02:18;;;;;;;99.53;45.45;;;3.80;99.90;;;;;;5005466;28;20036;-79
2021/12/17 02:04:44;;;;;;;93.50;45.63;;;3.80;99.90;;;;;;5044613;28;20025;-80
2021/12/17 02:07:11;;;;;;;135.60;64.00;;;3.80;99.90;;;;;;5044106;28;20029;-79
2021/12/17 02:12:54;;;;;;;131.75;66.95;;;3.80;99.90;;;;;;5048495;28;20337;-79
2021/12/17 02:20:58;;;;;;;104.57;50.15;;;1.90;99.90;;;;;;5048675;28;20036;-80
2021/12/17 02:32:05;;;;;;;75.93;34.83;;;3.70;99.90;;;;;;5047072;28;20035;-79
2021/12/17 02:37:06;;;;;;;71.13;33.03;;;3.80;99.90;;;;;;5032108;28;20115;-80
2021/12/17 02:47:37;;;;;;;65.03;32.10;;;3.70;99.90;;;;;;4987189;28;20228;-80
2021/12/17 02:50:04;;;;;;;63.75;32.47;;;3.60;99.90;;;;;;4986763;28;20039;-80
2021/12/17 02:52:34;;;;;;;68.20;32.28;;;3.60;99.90;;;;;;4986749;28;20041;-79
2021/12/17 02:55:00;;;;;;;66.72;31.88;;;3.70;99.90;;;;;;4987436;28;20576;-79
2021/12/17 02:57:26;;;;;;;59.10;30.27;;;3.70;99.90;;;;;;4986985;28;20018;-79
2021/12/17 02:59:53;;;;;;;60.63;29.05;;;3.70;99.90;;;;;;4987101;28;20037;-79
2021/12/17 03:02:23;;;;;;;63.15;31.20;;;3.70;99.90;;;;;;4985921;28;20530;-79
2021/12/17 03:04:50;;;;;;;64.30;30.42;;;3.70;99.90;;;;;;4986064;28;20121;-79
2021/12/17 03:07:16;;;;;;;61.05;30.52;;;3.80;99.90;;;;;;4984918;28;20031;-79
2021/12/17 03:10:05;;;;;;;64.60;31.38;;;3.80;99.90;;;;;;4989437;28;20046;-79
2021/12/17 03:12:55;;;;;;;68.03;34.10;;;3.80;99.90;;;;;;4975999;28;20213;-79
2021/12/17 03:25:53;;;;;;;66.72;30.67;;;3.70;99.90;;;;;;5047405;28;20029;-79
2021/12/17 03:28:20;;;;;;;65.55;32.65;;;2.40;99.90;;;;;;5047472;28;20032;-79
2021/12/17 03:30:47;;;;;;;69.03;32.63;;;3.70;99.90;;;;;;5043908;28;20104;-80
2021/12/17 03:33:14;;;;;;;66.35;31.95;;;3.80;99.90;;;;;;5042466;28;20495;-79
2021/12/17 03:35:40;;;;;;;69.47;32.72;;;3.80;99.90;;;;;;5042752;28;20475;-79
2021/12/17 03:38:06;;;;;;;67.57;32.80;;;3.80;99.90;;;;;;5042476;28;20315;-80
2021/12/17 03:40:33;;;;;;;72.75;33.15;;;3.90;99.90;;;;;;5041702;28;20045;-79
2021/12/17 03:43:11;;;;;;;60.38;29.75;;;3.90;99.90;;;;;;5023900;28;20123;-79
2021/12/17 03:45:38;;;;;;;61.33;29.10;;;3.90;99.90;;;;;;5041527;28;20147;-79
2021/12/17 03:48:04;;;;;;;57.90;28.73;;;3.90;99.90;;;;;;5041451;28;20041;-80
2021/12/17 03:50:36;;;;;;;61.25;29.08;;;3.80;99.90;;;;;;5041636;28;20013;-80
2021/12/17 03:53:03;;;;;;;59.38;29.13;;;3.80;99.90;;;;;;5041880;28;20108;-79
2021/12/17 03:55:29;;;;;;;64.25;29.52;;;3.90;99.90;;;;;;5040957;28;20108;-79
2021/12/17 03:57:58;;;;;;;63.28;29.85;;;3.80;99.90;;;;;;5041997;28;20518;-79
2021/12/17 04:00:24;;;;;;;60.33;29.10;;;3.90;99.90;;;;;;5041203;28;20139;-79
2021/12/17 04:02:51;;;;;;;67.68;31.90;;;3.90;99.90;;;;;;5039778;28;20027;-78
2021/12/17 04:05:17;;;;;;;69.35;31.50;;;3.90;99.90;;;;;;5041132;28;20040;-79
2021/12/17 04:07:43;;;;;;;67.75;33.78;;;3.80;99.90;;;;;;5022579;28;20045;-79
2021/12/17 04:10:09;;;;;;;72.15;33.63;;;3.90;99.90;;;;;;5040413;28;20127;-79
2021/12/17 04:12:50;;;;;;;70.03;32.83;;;4.00;99.90;;;;;;5040235;28;20026;-79
2021/12/17 04:15:16;;;;;;;66.90;31.80;;;3.90;99.90;;;;;;5040011;28;20024;-79
2021/12/17 04:17:52;;;;;;;66.97;32.45;;;3.90;99.90;;;;;;5039459;28;20040;-79
2021/12/17 04:20:19;;;;;;;;;;;3.90;99.90;;;;;;5022604;28;20123;-79
2021/12/17 04:22:45;;;;;;;62.35;29.42;;;4.00;99.90;;;;;;5039302;28;20098;-79
2021/12/17 04:25:11;;;;;;;67.85;31.17;;;4.00;99.90;;;;;;5039418;28;20218;-79
2021/12/17 04:27:36;;;;;;;58.72;30.60;;;4.00;99.90;;;;;;5040159;28;20024;-80
2021/12/17 04:30:03;;;;;;;64.88;31.42;;;4.00;99.90;;;;;;5040401;28;20095;-79
2021/12/17 04:32:29;;;;;;;73.47;33.90;;;4.00;99.90;;;;;;5040891;28;20017;-79
2021/12/17 04:34:55;;;;;;;65.57;33.15;;;4.00;99.90;;;;;;5041163;28;20024;-79
2021/12/17 04:37:21;;;;;;;71.97;33.75;;;4.00;99.90;;;;;;5040889;28;20021;-80
2021/12/17 04:39:47;;;;;;;67.03;31.55;;;4.00;99.90;;;;;;5039834;28;20052;-79
2021/12/17 04:42:24;;;;;;;68.47;31.67;;;4.00;99.90;;;;;;5039836;28;20029;-79
2021/12/17 04:44:54;;;;;;;67.22;31.58;;;4.00;99.90;;;;;;5039749;28;20082;-79
2021/12/17 04:57:58;;;;;;;58.22;28.60;;;3.00;99.90;;;;;;5041245;28;20444;-79
2021/12/17 05:00:28;;;;;;;61.63;30.08;;;4.00;99.90;;;;;;5040627;28;20321;-79
2021/12/17 05:02:56;;;;;;;63.30;29.05;;;4.00;99.90;;;;;;5041843;28;20206;-79
2021/12/17 05:05:27;;;;;;;59.22;28.30;;;4.00;99.90;;;;;;5042813;28;20115;-79
2021/12/17 05:07:58;;;;;;;59.80;28.23;;;4.00;99.90;;;;;;5041940;28;20033;-80
2021/12/17 05:10:52;;;;;;;59.95;28.38;;;4.00;99.90;;;;;;5042123;28;20029;-78
2021/12/17 05:19:01;;;;;;;58.65;27.25;;;4.10;99.90;;;;;;5043285;28;20065;-78
2021/12/17 05:21:27;;;;;;;56.08;25.90;;;4.10;99.90;;;;;;5044905;28;20020;-79
2021/12/17 05:23:53;;;;;;;61.17;30.08;;;4.10;99.90;;;;;;5042911;28;20025;-79
2021/12/17 05:26:20;;;;;;;63.00;29.48;;;4.10;99.90;;;;;;5044629;28;20052;-79
2021/12/17 05:28:47;;;;;;;60.25;29.10;;;4.10;99.90;;;;;;5044009;28;20577;-79
2021/12/17 05:31:15;;;;;;;59.72;28.73;;;4.40;99.90;;;;;;5048813;28;20079;-79
2021/12/17 05:33:41;;;;;;;69.88;31.30;;;4.10;99.90;;;;;;5046268;28;20475;-79
2021/12/17 05:36:06;;;;;;;61.97;30.83;;;4.10;99.90;;;;;;5049376;28;20040;-79
2021/12/17 05:38:32;;;;;;;54.75;28.45;;;4.10;99.90;;;;;;5031154;28;20032;-79
2021/12/17 05:41:03;;;;;;;58.08;29.33;;;4.10;99.90;;;;;;5050295;28;20053;-78
2021/12/17 05:43:29;;;;;;;67.47;30.98;;;4.10;99.90;;;;;;5051532;28;20529;-79
2021/12/17 05:48:24;;;;;;;71.32;34.58;;;4.10;99.90;;;;;;5045015;28;20135;-79
2021/12/17 05:50:55;;;;;;;77.32;36.13;;;4.10;99.90;;;;;;5045134;28;20537;-80
2021/12/17 05:53:21;;;;;;;70.88;34.05;;;4.10;99.90;;;;;;5046688;28;20059;-79
2021/12/17 05:55:47;;;;;;;63.53;30.52;;;4.10;99.90;;;;;;5049263;28;20072;-79
2021/12/17 05:58:15;;;;;;;65.53;30.23;;;4.10;99.90;;;;;;5030924;28;20323;-79
2021/12/17 06:00:42;;;;;;;61.20;30.17;;;4.10;99.90;;;;;;5047457;28;20027;-79
2021/12/17 06:03:09;;;;;;;54.45;27.45;;;4.10;99.90;;;;;;5026357;28;20106;-79
2021/12/17 06:05:36;;;;;;;53.85;27.83;;;4.30;99.90;;;;;;5044318;28;20021;-80
2021/12/17 06:08:03;;;;;;;54.10;27.17;;;4.10;99.90;;;;;;5046124;28;20028;-81
2021/12/17 06:10:28;;;;;;;47.05;24.08;;;4.10;99.90;;;;;;5045033;28;20030;-80
2021/12/17 06:12:55;;;;;;;43.10;23.70;;;4.80;99.90;;;;;;5027131;28;20328;-80
2021/12/17 06:15:21;;;;;;;39.83;20.65;;;4.10;99.90;;;;;;5025350;28;20443;-80
2021/12/17 06:17:48;;;;;;;33.58;18.92;;;4.10;99.90;;;;;;5043968;28;20021;-80
2021/12/17 06:20:15;;;;;;;31.10;17.63;;;4.20;99.90;;;;;;5045337;28;20023;-80
2021/12/17 06:22:42;;;;;;;31.80;17.17;;;4.20;99.90;;;;;;5027558;28;20021;-80
2021/12/17 06:25:09;;;;;;;40.92;21.77;;;4.20;99.90;;;;;;5026636;28;20387;-79
2021/12/17 06:27:35;;;;;;;59.47;30.60;;;4.20;99.90;;;;;;5010138;28;20218;-79
2021/12/17 06:30:05;;;;;;;50.50;25.55;;;4.20;99.90;;;;;;5042899;28;20025;-80
2021/12/17 06:32:32;;;;;;;54.20;28.15;;;4.20;99.90;;;;;;5043878;28;20365;-80
2021/12/17 06:34:58;;;;;;;63.08;32.03;;;4.20;99.90;;;;;;5043577;28;20021;-79
2021/12/17 06:37:23;;;;;;;75.85;36.17;;;4.20;99.90;;;;;;5043808;28;20021;-79
2021/12/17 06:39:50;;;;;;;88.03;40.42;;;4.20;99.90;;;;;;5044409;28;20037;-79
2021/12/17 06:42:16;;;;;;;70.60;34.90;;;4.10;99.90;;;;;;5046197;28;20094;-79
2021/12/17 06:44:45;;;;;;;76.85;37.70;;;4.00;99.90;;;;;;5028785;28;20031;-80
2021/12/17 06:47:23;;;;;;;69.32;35.72;;;4.00;99.90;;;;;;5047427;28;20021;-79
2021/12/17 06:49:56;;;;;;;62.20;31.65;;;4.00;99.90;;;;;;5047649;28;20047;-79
2021/12/17 07:06:06;;;;;;;65.63;32.35;;;4.10;99.90;;;;;;5045925;28;20075;-78
2021/12/17 07:20:18;;;;;;;43.53;22.85;;;4.10;99.90;;;;;;5047707;28;20295;-78
2021/12/17 07:32:49;;;;;;;49.72;25.27;;;4.20;99.90;;;;;;5050954;28;20102;-79
2021/12/17 07:40:11;;;;;;;35.35;19.13;;;4.30;99.90;;;;;;5051970;28;20041;-78
2021/12/17 07:42:37;;;;;;;35.58;20.38;;;4.20;99.90;;;;;;5045214;28;20613;-79
2021/12/17 07:45:05;;;;;;;37.60;19.70;;;4.20;99.90;;;;;;5043676;28;20665;-79
2021/12/17 07:47:32;;;;;;;33.45;18.33;;;4.30;99.90;;;;;;5044603;28;20017;-80
2021/12/17 07:49:57;;;;;;;34.53;18.60;;;4.30;99.90;;;;;;5025061;28;20104;-78
2021/12/17 07:52:23;;;;;;;31.08;16.88;;;2.40;99.90;;;;;;5042000;28;20088;-79
2021/12/17 07:54:49;;;;;;;19.45;11.45;;;4.40;99.90;;;;;;5042843;28;20119;-79
2021/12/17 07:57:16;;;;;;;20.52;10.70;;;4.30;99.90;;;;;;5026601;28;20013;-80
2021/12/17 07:59:41;;;;;;;20.95;11.68;;;4.40;99.90;;;;;;5044351;28;20048;-79
2021/12/17 08:02:08;;;;;;;17.08;10.65;;;4.40;99.90;;;;;;5045335;28;20021;-79
2021/12/17 08:04:35;;;;;;;20.02;11.27;;;4.40;99.90;;;;;;5028534;28;20502;-80
2021/12/17 08:07:02;;;;;;;19.23;11.02;;;6.20;99.90;;;;;;5047265;28;20574;-80
2021/12/17 08:09:28;;;;;;;19.85;11.50;;;4.40;99.90;;;;;;5050897;28;20025;-80
2021/12/17 08:11:56;;;;;;;17.95;10.40;;;4.40;99.90;;;;;;5050723;28;20063;-80
2021/12/17 08:14:24;;;;;;;19.05;10.95;;;4.50;99.90;;;;;;5051705;28;20055;-80
2021/12/17 08:17:30;;;;;;;31.70;15.23;;;4.50;99.90;;;;;;5051260;28;20325;-79
2021/12/17 08:25:15;;;;;;;31.60;17.13;;;4.60;99.90;;;;;;4988649;28;20555;-80
2021/12/17 08:27:51;;;;;;;24.50;15.30;;;4.60;99.90;;;;;;4989242;28;20054;-81
2021/12/17 08:30:22;;;;;;;30.98;17.58;;;4.60;99.90;;;;;;4984487;28;20031;-81
2021/12/17 08:32:49;;;;;;;32.00;18.42;;;4.70;99.90;;;;;;4984256;28;20034;-81
2021/12/17 08:35:15;;;;;;;34.03;18.48;;;4.10;99.90;;;;;;4967668;28;20193;-81
2021/12/17 08:37:42;;;;;;;33.30;18.15;;;4.80;99.90;;;;;;4982049;28;20662;-81
2021/12/17 08:40:09;;;;;;;34.10;18.60;;;4.90;99.90;;;;;;4981358;28;20058;-80
2021/12/17 08:42:35;;;;;;;40.78;20.88;;;4.80;99.90;;;;;;4982269;28;20169;-80
2021/12/17 08:45:02;;;;;;;36.95;19.80;;;4.90;99.90;;;;;;4982765;28;20062;-81
2021/12/17 08:47:28;;;;;;;29.02;17.17;;;4.90;99.90;;;;;;4982408;28;20037;-81
2021/12/17 08:49:55;;;;;;;25.77;14.82;;;4.90;99.90;;;;;;4966352;28;20030;-81
2021/12/17 08:52:21;;;;;;;26.45;16.73;;;5.00;99.90;;;;;;4965294;28;20031;-80
2021/12/17 08:54:46;;;;;;;31.10;17.48;;;5.00;99.90;;;;;;4981998;28;20028;-80
2021/12/17 08:57:15;;;;;;;31.48;17.73;;;5.00;99.90;;;;;;4967479;28;20026;-80
2021/12/17 08:59:40;;;;;;;35.05;17.38;;;5.10;99.90;;;;;;4984263;28;20026;-80
2021/12/17 09:02:06;;;;;;;32.35;18.50;;;5.10;99.90;;;;;;5012175;28;20095;-81
2021/12/17 09:04:32;;;;;;;31.30;17.52;;;5.20;99.90;;;;;;5047964;28;20035;-80
2021/12/17 09:06:58;;;;;;;34.40;18.63;;;5.30;99.90;;;;;;5033027;28;20028;-80
2021/12/17 09:09:24;;;;;;;31.38;17.55;;;5.40;99.90;;;;;;5030784;28;20467;-80
2021/12/17 09:11:50;;;;;;;27.42;14.80;;;5.40;99.40;;;;;;5048093;28;20032;-81
2021/12/17 09:14:19;;;;;;;31.05;16.88;;;5.40;99.40;;;;;;5044898;28;20025;-81
2021/12/17 09:16:46;;;;;;;32.20;16.73;;;5.50;99.50;;;;;;5025774;28;20036;-81
2021/12/17 09:19:12;;;;;;;30.10;16.63;;;5.50;99.10;;;;;;5042672;28;20017;-80
2021/12/17 09:21:38;;;;;;;34.42;18.77;;;5.60;98.90;;;;;;5042856;28;20028;-81
2021/12/17 09:24:04;;;;;;;31.85;18.00;;;5.60;98.80;;;;;;5043867;28;20021;-80
2021/12/17 09:26:33;;;;;;;37.10;18.55;;;5.60;98.80;;;;;;5026274;28;20029;-80
2021/12/17 09:28:59;;;;;;;32.63;18.63;;;5.60;99.00;;;;;;5043321;28;20021;-80
2021/12/17 09:31:25;;;;;;;36.20;19.58;;;5.70;99.00;;;;;;5043178;28;20025;-81
2021/12/17 09:33:51;;;;;;;37.60;18.85;;;5.60;98.10;;;;;;5043950;28;20036;-81
2021/12/17 09:36:18;;;;;;;37.55;18.15;;;5.70;98.30;;;;;;5042714;28;20510;-81
2021/12/17 09:38:49;;;;;;;34.55;18.08;;;5.70;98.10;;;;;;5024788;28;20021;-80
2021/12/17 09:41:16;;;;;;;37.90;19.85;;;5.80;97.40;;;;;;5021240;28;20049;-81
2021/12/17 09:43:42;;;;;;;35.20;18.13;;;5.80;96.80;;;;;;5038835;28;20065;-81
2021/12/17 09:46:08;;;;;;;35.58;18.50;;;5.70;97.00;;;;;;5043604;28;20041;-81
2021/12/17 09:48:35;;;;;;;35.42;18.40;;;5.60;97.10;;;;;;5044989;28;20663;-80
2021/12/17 09:51:04;;;;;;;36.35;18.15;;;5.60;97.30;;;;;;5042999;28;20036;-81
2021/12/17 09:53:30;;;;;;;37.15;19.30;;;5.70;97.10;;;;;;5041819;28;20115;-81
2021/12/17 09:55:56;;;;;;;43.28;20.65;;;5.70;96.90;;;;;;5041674;28;20087;-81
2021/12/17 09:58:22;;;;;;;42.38;21.33;;;5.60;96.80;;;;;;5043161;28;20033;-81
2021/12/17 10:00:49;;;;;;;39.15;20.20;;;5.60;97.20;;;;;;5023518;28;20552;-81
2021/12/17 10:03:14;;;;;;;49.05;22.75;;;5.50;97.20;;;;;;5040933;28;20021;-81
2021/12/17 10:05:41;;;;;;;43.95;22.02;;;5.50;97.40;;;;;;5022647;28;20013;-81
2021/12/17 10:08:16;;;;;;;47.15;20.65;;;5.50;96.90;;;;;;5039946;28;20037;-81
2021/12/17 10:10:47;;;;;;;45.10;21.77;;;5.60;96.80;;;;;;5022122;28;20147;-81
2021/12/17 10:13:27;;;;;;;50.38;23.52;;;5.60;97.20;;;;;;5039249;28;20025;-80
2021/12/17 10:15:58;;;;;;;47.63;23.00;;;6.60;97.10;;;;;;5044349;28;20044;-81
2021/12/17 10:18:38;;;;;;;44.72;20.92;;;6.10;95.60;;;;;;5047124;28;20110;-82
2021/12/17 10:21:17;;;;;;;39.08;19.50;;;6.50;95.40;;;;;;5047913;28;20044;-81
2021/12/17 10:23:45;;;;;;;43.45;19.23;;;6.80;94.50;;;;;;5047322;28;20579;-81
2021/12/17 10:26:12;;;;;;;43.00;19.67;;;7.10;93.10;;;;;;5044805;28;20695;-81
2021/12/17 10:28:50;;;;;;;47.08;22.60;;;7.30;92.90;;;;;;5044850;28;20114;-82
2021/12/17 10:31:17;;;;;;;38.47;19.40;;;7.50;91.90;;;;;;5044567;28;20100;-81
2021/12/17 10:33:49;;;;;;;35.78;17.13;;;7.40;91.50;;;;;;5028664;28;20568;-81
2021/12/17 10:36:16;;;;;;;40.53;17.23;;;9.50;91.40;;;;;;5029557;28;20147;-81
2021/12/17 10:38:46;;;;;;;30.83;14.95;;;7.60;91.10;;;;;;5046332;28;20029;-81
2021/12/17 10:41:15;;;;;;;29.42;14.82;;;6.70;89.50;;;;;;5046971;28;20048;-80
2021/12/17 10:43:50;;;;;;;24.98;13.77;;;7.90;90.20;;;;;;5050141;28;20096;-81
2021/12/17 10:49:17;;;;;;;29.15;14.32;;;7.50;87.40;;;;;;5052331;28;20021;-80
2021/12/17 10:51:48;;;;;;;24.63;13.13;;;6.60;90.20;;;;;;5046133;28;20025;-81
2021/12/17 10:54:21;;;;;;;27.85;13.57;;;7.40;90.10;;;;;;5046219;28;20032;-81
2021/12/17 10:56:50;;;;;;;21.70;11.23;;;7.30;90.40;;;;;;5046034;28;20095;-80
2021/12/17 10:59:18;;;;;;;21.42;10.73;;;7.20;89.10;;;;;;5046461;28;20047;-80
2021/12/17 11:01:58;;;;;;;15.02;7.93;;;7.10;88.80;;;;;;5046436;28;20060;-80
2021/12/17 11:04:30;;;;;;;14.52;7.80;;;7.00;87.50;;;;;;5024690;28;20093;-81
2021/12/17 11:07:04;;;;;;;14.60;7.70;;;7.00;86.80;;;;;;5046587;28;20029;-81
2021/12/17 11:09:43;;;;;;;10.65;6.30;;;7.00;86.10;;;;;;5030401;28;20499;-80
2021/12/17 11:12:32;;;;;;;14.38;7.35;;;6.80;84.50;;;;;;5047867;28;20029;-81
2021/12/17 11:15:12;;;;;;;13.80;7.25;;;6.60;85.70;;;;;;5048881;28;20032;-81
2021/12/17 11:17:40;;;;;;;11.40;6.10;;;6.60;87.60;;;;;;5060090;28;20021;-82
2021/12/17 11:20:23;;;;;;;11.95;6.05;;;6.50;85.80;;;;;;5059804;28;20243;-82
2021/12/17 11:22:51;;;;;;;10.68;5.75;;;6.40;85.80;;;;;;5055880;28;20083;-82
2021/12/17 11:25:19;;;;;;;9.45;5.55;;;6.40;86.10;;;;;;5055296;28;20312;-82
2021/12/17 11:27:47;;;;;;;10.98;5.05;;;6.30;86.60;;;;;;5046126;28;20053;-81
2021/12/17 11:30:22;;;;;;;9.82;5.88;;;6.10;87.40;;;;;;5026129;28;20025;-80
2021/12/17 11:32:50;;;;;;;10.00;4.97;;;3.50;87.80;;;;;;5026868;28;20023;-80
2021/12/17 11:35:20;;;;;;;12.50;5.72;;;6.30;86.90;;;;;;5044598;28;20052;-81
2021/12/17 11:37:49;;;;;;;8.27;5.13;;;5.80;88.10;;;;;;5026710;28;20033;-81
2021/12/17 11:40:26;;;;;;;10.23;5.68;;;6.20;87.30;;;;;;5026734;28;20598;-79
2021/12/17 11:43:02;;;;;;;13.50;6.10;;;6.20;88.00;;;;;;5048355;28;20107;-81
2021/12/17 11:45:29;;;;;;;10.85;6.20;;;6.80;88.30;;;;;;5029485;28;20123;-80
2021/12/17 11:48:21;;;;;;;8.65;5.05;;;6.10;88.50;;;;;;5047853;28;20088;-80
2021/12/17 11:51:09;;;;;;;8.38;4.75;;;6.10;88.60;;;;;;5047741;28;20017;-81
2021/12/17 11:54:03;;;;;;;7.80;4.88;;;6.10;86.90;;;;;;5082332;27;20421;-81
2021/12/17 11:56:48;;;;;;;9.23;4.85;;;6.00;88.00;;;;;;5080917;28;20016;-82
2021/12/17 11:59:25;;;;;;;9.48;4.97;;;6.10;87.10;;;;;;5085242;28;20013;-82
2021/12/17 12:01:58;;;;;;;8.65;4.43;;;6.10;86.90;;;;;;5078814;28;20044;-83
2021/12/17 12:04:41;;;;;;;10.18;5.55;;;6.00;85.80;;;;;;5072449;28;20021;-79
2021/12/17 12:07:14;;;;;;;15.20;5.80;;;6.10;86.60;;;;;;5057106;28;20008;-82
2021/12/17 12:09:59;;;;;;;10.85;5.88;;;6.00;87.50;;;;;;5058770;28;20024;-82
2021/12/17 12:12:28;;;;;;;12.00;6.40;;;6.00;88.00;;;;;;5058188;28;20040;-82
2021/12/17 12:14:55;;;;;;;12.70;6.90;;;6.20;88.50;;;;;;5058064;28;20027;-82
2021/12/17 12:18:08;;;;;;;12.05;7.13;;;6.20;88.70;;;;;;5057050;28;20116;-81
2021/12/17 12:20:46;;;;;;;13.88;4.75;;;6.30;87.00;;;;;;5015906;28;20021;-81
2021/12/17 12:23:34;;;;;;;17.52;5.10;;;6.20;86.40;;;;;;5013809;28;20129;-82
2021/12/17 12:26:03;;;;;;;10.05;5.35;;;6.30;85.40;;;;;;4998147;28;20022;-81
2021/12/17 12:28:49;;;;;;;12.73;7.90;;;6.40;86.50;;;;;;5016008;28;20022;-82
2021/12/17 12:31:18;;;;;;;;;;;6.50;87.90;;;;;;5015066;28;20061;-80
2021/12/17 12:34:06;;;;;;;10.43;5.28;;;6.60;86.60;;;;;;5015984;28;20120;-80
2021/12/17 12:36:50;;;;;;;7.93;4.63;;;6.60;82.60;;;;;;5014009;28;20034;-81
2021/12/17 12:39:24;;;;;;;7.90;4.53;;;6.50;81.40;;;;;;5014146;28;20107;-82
2021/12/17 12:42:04;;;;;;;7.90;4.15;;;6.40;81.60;;;;;;5014059;28;20638;-81
2021/12/17 12:44:42;;;;;;;9.48;4.35;;;6.40;81.00;;;;;;5013127;28;20026;-79
2021/12/17 12:47:24;;;;;;;7.65;4.13;;;6.30;81.60;;;;;;5014834;28;20030;-82
2021/12/17 12:49:51;;;;;;;9.52;4.60;;;6.30;82.50;;;;;;4997772;28;20565;-82
2021/12/17 12:52:30;;;;;;;9.25;5.00;;;6.20;82.50;;;;;;5013315;28;20130;-81
2021/12/17 12:54:59;;;;;;;12.57;5.43;;;6.10;84.30;;;;;;4999395;28;20068;-81
2021/12/17 12:57:34;;;;;;;6.32;3.40;;;6.10;84.20;;;;;;5055430;28;20023;-82
2021/12/17 13:00:10;;;;;;;8.75;4.95;;;6.10;83.90;;;;;;5056038;28;20073;-81
2021/12/17 13:02:36;;;;;;;8.48;4.88;;;6.00;84.20;;;;;;5064624;28;20659;-83
2021/12/17 13:05:06;;;;;;;10.23;5.43;;;6.10;83.80;;;;;;5061576;28;20064;-82
2021/12/17 13:07:34;;;;;;;7.60;3.88;;;6.10;84.50;;;;;;5062710;28;20110;-83
2021/12/17 13:10:12;;;;;;;18.77;5.45;;;6.10;83.50;;;;;;5043296;28;20110;-81
2021/12/17 13:12:38;;;;;;;13.13;7.38;;;6.10;86.30;;;;;;5044086;28;20033;-81
2021/12/17 13:15:19;;;;;;;9.52;5.35;;;6.30;95.60;;;;;;5045854;28;20032;-80
2021/12/17 13:23:21;;;;;;;7.93;4.43;;;6.20;84.20;;;;;;5045927;28;20025;-81
2021/12/17 13:26:09;;;;;;;11.07;5.00;;;6.10;83.50;;;;;;5047244;28;20025;-81
2021/12/17 13:29:09;;;;;;;8.65;4.88;;;6.10;83.80;;;;;;5043523;28;20020;-81
2021/12/17 13:31:43;;;;;;;12.52;5.75;;;6.00;84.80;;;;;;5038188;28;20036;-81
2021/12/17 13:34:46;;;;;;;11.48;5.20;;;6.00;84.50;;;;;;5044245;28;20040;-80
2021/12/17 13:37:18;;;;;;;9.15;5.57;;;6.10;83.90;;;;;;5052074;28;20005;-82
2021/12/17 13:39:47;;;;;;;10.52;5.15;;;6.00;84.10;;;;;;5051005;28;20017;-81
2021/12/17 13:42:30;;;;;;;11.95;6.53;;;6.10;84.90;;;;;;5055178;28;20020;-81
2021/12/17 13:45:16;;;;;;;13.15;6.35;;;6.00;84.90;;;;;;5057211;28;20099;-81
2021/12/17 13:47:47;;;;;;;16.02;7.55;;;6.10;85.00;;;;;;5055156;28;20013;-81
2021/12/17 13:50:25;;;;;;;17.42;7.97;;;6.10;85.80;;;;;;5056544;28;20029;-81
2021/12/17 13:53:00;;;;;;;12.93;6.53;;;6.20;85.80;;;;;;5053896;28;20063;-81
2021/12/17 13:55:37;;;;;;;12.20;6.95;;;6.20;86.10;;;;;;5058011;28;20022;-83
2021/12/17 13:58:11;;;;;;;17.23;8.52;;;6.20;85.80;;;;;;5048935;28;20021;-82
2021/12/17 14:00:51;;;;;;;11.38;4.68;;;6.20;85.50;;;;;;5054939;28;20091;-82
2021/12/17 14:03:22;;;;;;;9.70;4.70;;;6.20;85.20;;;;;;5046952;28;20670;-82
2021/12/17 14:06:08;;;;;;;9.25;4.85;;;6.10;84.20;;;;;;5053372;28;20032;-81
2021/12/17 14:08:38;;;;;;;11.10;4.40;;;6.10;85.40;;;;;;5054990;28;20537;-81
2021/12/17 14:11:16;;;;;;;12.73;4.95;;;6.10;85.20;;;;;;5055439;28;20024;-80
2021/12/17 14:13:43;;;;;;;10.65;5.70;;;6.10;85.80;;;;;;5054679;28;20257;-80
2021/12/17 14:16:09;;;;;;;13.10;5.18;;;6.10;85.60;;;;;;5048023;28;20021;-82
2021/12/17 14:18:35;;;;;;;11.73;6.28;;;7.80;86.50;;;;;;5050060;28;20763;-82
2021/12/17 14:21:03;;;;;;;10.77;5.72;;;6.10;85.70;;;;;;5049734;28;20017;-83
2021/12/17 14:23:31;;;;;;;12.23;5.97;;;6.10;85.70;;;;;;5052216;28;20029;-82
2021/12/17 14:26:09;;;;;;;12.10;6.25;;;6.00;85.50;;;;;;5056418;28;20021;-83
2021/12/17 14:28:40;;;;;;;8.88;4.82;;;6.00;85.20;;;;;;5058267;28;20142;-83
2021/12/17 14:31:09;;;;;;;9.55;5.47;;;6.00;84.80;;;;;;5058286;28;20018;-84
2021/12/17 14:33:51;;;;;;;9.70;5.25;;;6.00;85.40;;;;;;5059317;28;20045;-82
2021/12/17 14:36:19;;;;;;;13.43;7.07;;;5.90;85.00;;;;;;5057843;28;20029;-81
2021/12/17 14:38:56;;;;;;;14.13;7.20;;;5.90;85.70;;;;;;5057052;28;20031;-81
2021/12/17 14:41:39;;;;;;;13.00;6.78;;;5.70;86.10;;;;;;5052538;28;20017;-82
2021/12/17 14:47:30;;;;;;;15.00;6.70;;;5.60;86.20;;;;;;5046452;28;20021;-82
2021/12/17 15:01:37;;;;;;;15.13;7.25;;;6.40;87.90;;;;;;5035947;28;20029;-81
2021/12/17 15:04:03;;;;;;;13.55;7.43;;;5.40;87.10;;;;;;5051897;28;20048;-82
2021/12/17 15:06:29;;;;;;;12.55;6.55;;;5.40;86.70;;;;;;5052650;28;20099;-81
2021/12/17 15:08:54;;;;;;;15.18;6.78;;;5.40;86.40;;;;;;5054048;28;20028;-81
2021/12/17 15:11:36;;;;;;;12.35;6.15;;;5.40;86.10;;;;;;5057714;28;20278;-81
2021/12/17 15:14:03;;;;;;;12.18;5.90;;;5.30;84.80;;;;;;5054687;28;20037;-82
2021/12/17 15:16:30;;;;;;;10.70;5.57;;;5.30;85.00;;;;;;5052157;28;20108;-83
2021/12/17 15:18:56;;;;;;;11.88;6.63;;;5.30;84.00;;;;;;5046980;28;20029;-82
2021/12/17 15:21:22;;;;;;;24.02;10.60;;;5.30;84.10;;;;;;5048394;28;20017;-80
2021/12/17 15:23:48;;;;;;;18.40;9.13;;;5.30;84.80;;;;;;5049665;28;20067;-81
2021/12/17 15:26:13;;;;;;;22.73;11.90;;;5.20;85.70;;;;;;5044141;28;20021;-81
2021/12/17 15:28:39;;;;;;;36.03;17.73;;;5.20;87.50;;;;;;5042920;28;20055;-80
2021/12/17 15:31:06;;;;;;;29.83;14.82;;;5.10;88.00;;;;;;5039223;28;20695;-80
2021/12/17 15:33:36;;;;;;;26.10;13.10;;;5.10;89.40;;;;;;5040767;28;20112;-82
2021/12/17 15:36:05;;;;;;;20.92;10.10;;;5.10;89.10;;;;;;5045787;28;20471;-81
2021/12/17 15:38:32;;;;;;;17.15;7.90;;;5.10;88.10;;;;;;5042108;28;20108;-81
2021/12/17 15:41:01;;;;;;;13.45;6.18;;;5.10;85.30;;;;;;5044406;28;20074;-81
2021/12/17 15:43:28;;;;;;;10.07;5.53;;;5.00;86.70;;;;;;5043910;28;20048;-80
2021/12/17 15:45:58;;;;;;;17.95;7.85;;;5.00;86.90;;;;;;5041349;28;20678;-80
2021/12/17 15:48:24;;;;;;;10.57;4.88;;;5.00;84.20;;;;;;5042509;28;20364;-82
2021/12/17 15:50:51;;;;;;;15.63;7.60;;;5.00;84.30;;;;;;5044473;28;20025;-80
2021/12/17 15:53:17;;;;;;;14.85;7.18;;;4.90;84.50;;;;;;5042774;28;20110;-79
2021/12/17 15:55:43;;;;;;;14.18;6.82;;;4.90;87.10;;;;;;5043757;28;20224;-80
2021/12/17 15:58:09;;;;;;;22.33;11.77;;;4.90;86.80;;;;;;5042006;28;20025;-80
2021/12/17 16:00:38;;;;;;;24.10;12.48;;;4.90;86.40;;;;;;5040923;28;20026;-79
2021/12/17 16:03:09;;;;;;;22.30;12.32;;;4.80;86.10;;;;;;5042179;28;20029;-81